sensor_id;sensor_type;location;lat;lon;timestamp;temperature;humidity
21104;DHT22;10710;53.398;-1.514;2022-10-16T00:00:39;10.80;99.90
21104;DHT22;10710;53.398;-1.514;2022-10-16T00:03:06;10.80;99.90
21104;DHT22;10710;53.398;-1.514;2022-10-16T00:05:33;10.80;99.90
21104;DHT22;10710;53.398;-1.514;2022-10-16T00:08:03;10.90;99.90
21104;DHT22;10710;53.398;-1.514;2022-10-16T00:10:29;10.80;99.90
21104;DHT22;10710;53.398;-1.514;2022-10-16T00:12:54;10.80;99.90
21104;DHT22;10710;53.398;-1.514;2022-10-16T00:18:03;10.90;99.90
21104;DHT22;10710;53.398;-1.514;2022-10-16T00:20:29;10.90;99.90
21104;DHT22;10710;53.398;-1.514;2022-10-16T00:22:57;10.90;99.90
21104;DHT22;10710;53.398;-1.514;2022-10-16T00:25:23;11.00;99.90
21104;DHT22;10710;53.398;-1.514;2022-10-16T00:27:48;10.90;99.90
21104;DHT22;10710;53.398;-1.514;2022-10-16T00:30:14;10.80;99.90
21104;DHT22;10710;53.398;-1.514;2022-10-16T00:32:40;10.80;99.90
21104;DHT22;10710;53.398;-1.514;2022-10-16T00:35:06;10.70;99.90
21104;DHT22;10710;53.398;-1.514;2022-10-16T00:37:32;10.80;99.90
21104;DHT22;10710;53.398;-1.514;2022-10-16T00:39:58;10.80;99.90
21104;DHT22;10710;53.398;-1.514;2022-10-16T00:42:23;11.00;99.90
21104;DHT22;10710;53.398;-1.514;2022-10-16T00:44:55;11.00;99.90
21104;DHT22;10710;53.398;-1.514;2022-10-16T00:49:56;11.00;99.90
21104;DHT22;10710;53.398;-1.514;2022-10-16T00:52:23;11.10;99.90
21104;DHT22;10710;53.398;-1.514;2022-10-16T00:54:50;11.10;99.90
21104;DHT22;10710;53.398;-1.514;2022-10-16T00:57:16;11.00;99.90
21104;DHT22;10710;53.398;-1.514;2022-10-16T00:59:43;10.90;99.90
21104;DHT22;10710;53.398;-1.514;2022-10-16T01:02:12;10.90;99.90
21104;DHT22;10710;53.398;-1.514;2022-10-16T01:04:57;10.90;99.90
21104;DHT22;10710;53.398;-1.514;2022-10-16T01:07:49;10.90;99.90
21104;DHT22;10710;53.398;-1.514;2022-10-16T01:10:30;10.90;99.90
21104;DHT22;10710;53.398;-1.514;2022-10-16T01:16:11;11.10;99.90
21104;DHT22;10710;53.398;-1.514;2022-10-16T01:21:05;11.00;99.90
21104;DHT22;10710;53.398;-1.514;2022-10-16T01:26:27;11.00;99.90
21104;DHT22;10710;53.398;-1.514;2022-10-16T01:31:35;10.80;99.90
21104;DHT22;10710;53.398;-1.514;2022-10-16T01:34:22;10.80;99.90
21104;DHT22;10710;53.398;-1.514;2022-10-16T01:36:59;10.90;99.90
21104;DHT22;10710;53.398;-1.514;2022-10-16T01:39:30;11.00;99.90
21104;DHT22;10710;53.398;-1.514;2022-10-16T01:42:06;11.00;99.90
21104;DHT22;10710;53.398;-1.514;2022-10-16T01:44:34;11.00;99.90
21104;DHT22;10710;53.398;-1.514;2022-10-16T01:47:02;11.00;99.90
21104;DHT22;10710;53.398;-1.514;2022-10-16T01:49:34;11.10;99.90
21104;DHT22;10710;53.398;-1.514;2022-10-16T01:52:05;11.10;99.90
21104;DHT22;10710;53.398;-1.514;2022-10-16T01:54:34;11.10;99.90
21104;DHT22;10710;53.398;-1.514;2022-10-16T01:57:01;11.00;99.90
21104;DHT22;10710;53.398;-1.514;2022-10-16T01:59:30;11.00;99.90
21104;DHT22;10710;53.398;-1.514;2022-10-16T02:01:59;11.00;99.90
21104;DHT22;10710;53.398;-1.514;2022-10-16T02:04:34;11.00;99.90
21104;DHT22;10710;53.398;-1.514;2022-10-16T02:07:02;10.90;99.90
21104;DHT22;10710;53.398;-1.514;2022-10-16T02:09:30;11.00;99.90
21104;DHT22;10710;53.398;-1.514;2022-10-16T02:11:57;11.00;99.90
21104;DHT22;10710;53.398;-1.514;2022-10-16T02:14:26;11.00;99.90
21104;DHT22;10710;53.398;-1.514;2022-10-16T02:16:52;10.90;99.90
21104;DHT22;10710;53.398;-1.514;2022-10-16T02:19:19;10.90;99.90
21104;DHT22;10710;53.398;-1.514;2022-10-16T02:21:54;10.90;99.90
21104;DHT22;10710;53.398;-1.514;2022-10-16T02:27:20;10.90;99.90
21104;DHT22;10710;53.398;-1.514;2022-10-16T02:29:55;10.90;99.90
21104;DHT22;10710;53.398;-1.514;2022-10-16T02:32:29;10.90;99.90
21104;DHT22;10710;53.398;-1.514;2022-10-16T02:34:56;11.00;99.90
21104;DHT22;10710;53.398;-1.514;2022-10-16T02:37:24;11.00;99.90
21104;DHT22;10710;53.398;-1.514;2022-10-16T02:39:51;11.00;99.90
21104;DHT22;10710;53.398;-1.514;2022-10-16T02:42:18;10.90;99.90
21104;DHT22;10710;53.398;-1.514;2022-10-16T02:44:44;11.00;99.90
21104;DHT22;10710;53.398;-1.514;2022-10-16T02:47:11;11.00;99.90
21104;DHT22;10710;53.398;-1.514;2022-10-16T02:49:38;11.10;99.90
21104;DHT22;10710;53.398;-1.514;2022-10-16T02:52:03;11.10;99.90
21104;DHT22;10710;53.398;-1.514;2022-10-16T02:54:29;11.10;99.90
21104;DHT22;10710;53.398;-1.514;2022-10-16T02:56:55;11.20;99.90
21104;DHT22;10710;53.398;-1.514;2022-10-16T02:59:21;11.20;99.90
21104;DHT22;10710;53.398;-1.514;2022-10-16T03:01:47;11.30;99.90
21104;DHT22;10710;53.398;-1.514;2022-10-16T03:04:13;11.30;99.90
21104;DHT22;10710;53.398;-1.514;2022-10-16T03:06:40;11.30;99.90
21104;DHT22;10710;53.398;-1.514;2022-10-16T03:09:06;11.30;99.90
21104;DHT22;10710;53.398;-1.514;2022-10-16T03:11:32;11.30;99.90
21104;DHT22;10710;53.398;-1.514;2022-10-16T03:13:57;11.40;99.90
21104;DHT22;10710;53.398;-1.514;2022-10-16T03:16:23;11.40;99.90
21104;DHT22;10710;53.398;-1.514;2022-10-16T03:18:49;11.40;99.90
21104;DHT22;10710;53.398;-1.514;2022-10-16T03:21:15;11.40;99.90
21104;DHT22;10710;53.398;-1.514;2022-10-16T03:23:41;11.40;99.90
21104;DHT22;10710;53.398;-1.514;2022-10-16T03:26:07;11.50;99.90
21104;DHT22;10710;53.398;-1.514;2022-10-16T03:28:32;11.50;99.90
21104;DHT22;10710;53.398;-1.514;2022-10-16T03:30:58;11.40;99.90
21104;DHT22;10710;53.398;-1.514;2022-10-16T03:33:24;11.40;99.90
21104;DHT22;10710;53.398;-1.514;2022-10-16T03:35:54;11.40;99.90
21104;DHT22;10710;53.398;-1.514;2022-10-16T03:38:20;11.30;99.90
21104;DHT22;10710;53.398;-1.514;2022-10-16T03:40:46;11.30;99.90
21104;DHT22;10710;53.398;-1.514;2022-10-16T03:43:12;11.20;99.90
21104;DHT22;10710;53.398;-1.514;2022-10-16T03:45:38;11.10;99.90
21104;DHT22;10710;53.398;-1.514;2022-10-16T03:48:04;11.00;99.90
21104;DHT22;10710;53.398;-1.514;2022-10-16T03:50:30;11.00;99.90
21104;DHT22;10710;53.398;-1.514;2022-10-16T03:52:56;11.00;99.90
21104;DHT22;10710;53.398;-1.514;2022-10-16T03:55:22;11.00;99.90
21104;DHT22;10710;53.398;-1.514;2022-10-16T03:57:48;10.90;99.90
21104;DHT22;10710;53.398;-1.514;2022-10-16T04:00:14;10.90;99.90
21104;DHT22;10710;53.398;-1.514;2022-10-16T04:02:40;10.90;99.90
21104;DHT22;10710;53.398;-1.514;2022-10-16T04:05:07;10.90;99.90
21104;DHT22;10710;53.398;-1.514;2022-10-16T04:07:33;10.80;99.90
21104;DHT22;10710;53.398;-1.514;2022-10-16T04:09:58;10.80;99.90
21104;DHT22;10710;53.398;-1.514;2022-10-16T04:12:25;10.80;99.90
21104;DHT22;10710;53.398;-1.514;2022-10-16T04:14:51;10.70;99.90
21104;DHT22;10710;53.398;-1.514;2022-10-16T04:17:17;10.70;99.90
21104;DHT22;10710;53.398;-1.514;2022-10-16T04:19:43;10.70;99.90
21104;DHT22;10710;53.398;-1.514;2022-10-16T04:22:09;10.60;99.90
21104;DHT22;10710;53.398;-1.514;2022-10-16T04:24:35;10.70;99.90
21104;DHT22;10710;53.398;-1.514;2022-10-16T04:27:00;10.60;99.90
21104;DHT22;10710;53.398;-1.514;2022-10-16T04:29:26;10.60;99.90
21104;DHT22;10710;53.398;-1.514;2022-10-16T04:31:52;10.60;99.90
21104;DHT22;10710;53.398;-1.514;2022-10-16T04:34:18;10.50;99.90
21104;DHT22;10710;53.398;-1.514;2022-10-16T04:36:46;10.40;99.90
21104;DHT22;10710;53.398;-1.514;2022-10-16T04:39:12;10.40;99.90
21104;DHT22;10710;53.398;-1.514;2022-10-16T04:41:38;10.40;99.90
21104;DHT22;10710;53.398;-1.514;2022-10-16T04:44:04;10.40;99.90
21104;DHT22;10710;53.398;-1.514;2022-10-16T04:46:29;10.30;99.90
21104;DHT22;10710;53.398;-1.514;2022-10-16T04:48:55;10.30;99.90
21104;DHT22;10710;53.398;-1.514;2022-10-16T04:51:21;10.20;99.90
21104;DHT22;10710;53.398;-1.514;2022-10-16T04:53:46;10.20;99.90
21104;DHT22;10710;53.398;-1.514;2022-10-16T04:56:13;10.10;99.90
21104;DHT22;10710;53.398;-1.514;2022-10-16T04:58:40;10.10;99.90
21104;DHT22;10710;53.398;-1.514;2022-10-16T05:01:06;10.00;99.90
21104;DHT22;10710;53.398;-1.514;2022-10-16T05:03:31;10.00;99.90
21104;DHT22;10710;53.398;-1.514;2022-10-16T05:05:57;9.90;99.90
21104;DHT22;10710;53.398;-1.514;2022-10-16T05:08:23;9.90;99.90
21104;DHT22;10710;53.398;-1.514;2022-10-16T05:10:49;9.80;99.90
21104;DHT22;10710;53.398;-1.514;2022-10-16T05:13:15;9.90;99.90
21104;DHT22;10710;53.398;-1.514;2022-10-16T05:15:41;9.80;99.90
21104;DHT22;10710;53.398;-1.514;2022-10-16T05:18:08;9.80;99.90
21104;DHT22;10710;53.398;-1.514;2022-10-16T05:20:34;9.80;99.90
21104;DHT22;10710;53.398;-1.514;2022-10-16T05:23:00;9.70;99.90
21104;DHT22;10710;53.398;-1.514;2022-10-16T05:25:26;9.70;99.90
21104;DHT22;10710;53.398;-1.514;2022-10-16T05:27:52;9.70;99.90
21104;DHT22;10710;53.398;-1.514;2022-10-16T05:30:18;9.70;99.90
21104;DHT22;10710;53.398;-1.514;2022-10-16T05:32:50;9.60;99.90
21104;DHT22;10710;53.398;-1.514;2022-10-16T05:35:17;9.60;99.90
21104;DHT22;10710;53.398;-1.514;2022-10-16T05:37:43;9.50;99.90
21104;DHT22;10710;53.398;-1.514;2022-10-16T05:40:10;9.50;99.90
21104;DHT22;10710;53.398;-1.514;2022-10-16T05:42:35;9.50;99.90
21104;DHT22;10710;53.398;-1.514;2022-10-16T05:45:03;9.50;99.90
21104;DHT22;10710;53.398;-1.514;2022-10-16T05:47:29;9.50;99.90
21104;DHT22;10710;53.398;-1.514;2022-10-16T05:49:55;9.40;99.90
21104;DHT22;10710;53.398;-1.514;2022-10-16T05:52:21;9.40;99.90
21104;DHT22;10710;53.398;-1.514;2022-10-16T05:54:47;9.40;99.90
21104;DHT22;10710;53.398;-1.514;2022-10-16T05:57:13;9.30;99.90
21104;DHT22;10710;53.398;-1.514;2022-10-16T05:59:39;9.30;99.90
21104;DHT22;10710;53.398;-1.514;2022-10-16T06:02:05;9.30;99.90
21104;DHT22;10710;53.398;-1.514;2022-10-16T06:04:31;9.40;99.90
21104;DHT22;10710;53.398;-1.514;2022-10-16T06:06:59;9.30;99.90
21104;DHT22;10710;53.398;-1.514;2022-10-16T06:09:28;9.30;99.90
21104;DHT22;10710;53.398;-1.514;2022-10-16T06:11:53;9.30;99.90
21104;DHT22;10710;53.398;-1.514;2022-10-16T06:14:20;9.20;99.90
21104;DHT22;10710;53.398;-1.514;2022-10-16T06:16:45;9.10;99.90
21104;DHT22;10710;53.398;-1.514;2022-10-16T06:19:11;9.10;99.90
21104;DHT22;10710;53.398;-1.514;2022-10-16T06:21:37;9.10;99.90
21104;DHT22;10710;53.398;-1.514;2022-10-16T06:24:03;9.10;99.90
21104;DHT22;10710;53.398;-1.514;2022-10-16T06:26:30;9.10;99.90
21104;DHT22;10710;53.398;-1.514;2022-10-16T06:28:57;9.10;99.90
21104;DHT22;10710;53.398;-1.514;2022-10-16T06:31:23;9.00;99.90
21104;DHT22;10710;53.398;-1.514;2022-10-16T06:33:53;9.00;99.90
21104;DHT22;10710;53.398;-1.514;2022-10-16T06:36:20;9.00;99.90
21104;DHT22;10710;53.398;-1.514;2022-10-16T06:38:46;9.10;99.90
21104;DHT22;10710;53.398;-1.514;2022-10-16T06:41:14;9.00;99.90
21104;DHT22;10710;53.398;-1.514;2022-10-16T06:43:40;9.10;99.90
21104;DHT22;10710;53.398;-1.514;2022-10-16T06:46:09;9.20;99.90
21104;DHT22;10710;53.398;-1.514;2022-10-16T06:48:36;9.10;99.90
21104;DHT22;10710;53.398;-1.514;2022-10-16T06:51:06;9.10;99.90
21104;DHT22;10710;53.398;-1.514;2022-10-16T06:53:36;9.20;99.90
21104;DHT22;10710;53.398;-1.514;2022-10-16T06:56:14;9.30;99.90
21104;DHT22;10710;53.398;-1.514;2022-10-16T06:58:40;9.20;99.90
21104;DHT22;10710;53.398;-1.514;2022-10-16T07:01:09;9.20;99.90
21104;DHT22;10710;53.398;-1.514;2022-10-16T07:03:39;9.20;99.90
21104;DHT22;10710;53.398;-1.514;2022-10-16T07:06:06;9.20;99.90
21104;DHT22;10710;53.398;-1.514;2022-10-16T07:08:37;9.30;99.90
21104;DHT22;10710;53.398;-1.514;2022-10-16T07:11:06;9.20;99.90
21104;DHT22;10710;53.398;-1.514;2022-10-16T07:13:34;9.10;99.90
21104;DHT22;10710;53.398;-1.514;2022-10-16T07:16:07;9.20;99.90
21104;DHT22;10710;53.398;-1.514;2022-10-16T07:18:34;9.20;99.90
21104;DHT22;10710;53.398;-1.514;2022-10-16T07:21:10;9.20;99.90
21104;DHT22;10710;53.398;-1.514;2022-10-16T07:23:37;9.20;99.90
21104;DHT22;10710;53.398;-1.514;2022-10-16T07:26:04;9.30;99.90
21104;DHT22;10710;53.398;-1.514;2022-10-16T07:28:30;9.30;99.90
21104;DHT22;10710;53.398;-1.514;2022-10-16T07:31:05;9.30;99.90
21104;DHT22;10710;53.398;-1.514;2022-10-16T07:33:32;9.40;99.90
21104;DHT22;10710;53.398;-1.514;2022-10-16T07:35:57;9.30;99.90
21104;DHT22;10710;53.398;-1.514;2022-10-16T07:38:23;9.40;99.90
21104;DHT22;10710;53.398;-1.514;2022-10-16T07:40:56;9.50;99.90
21104;DHT22;10710;53.398;-1.514;2022-10-16T07:43:23;9.50;99.90
21104;DHT22;10710;53.398;-1.514;2022-10-16T07:45:49;9.60;99.90
21104;DHT22;10710;53.398;-1.514;2022-10-16T07:48:17;9.60;99.90
21104;DHT22;10710;53.398;-1.514;2022-10-16T07:50:43;9.60;99.90
21104;DHT22;10710;53.398;-1.514;2022-10-16T07:53:10;9.70;99.90
21104;DHT22;10710;53.398;-1.514;2022-10-16T07:55:36;9.80;99.90
21104;DHT22;10710;53.398;-1.514;2022-10-16T07:58:02;9.80;99.90
21104;DHT22;10710;53.398;-1.514;2022-10-16T08:00:28;9.90;99.90
21104;DHT22;10710;53.398;-1.514;2022-10-16T08:02:54;9.90;99.90
21104;DHT22;10710;53.398;-1.514;2022-10-16T08:05:20;10.00;99.90
21104;DHT22;10710;53.398;-1.514;2022-10-16T08:07:49;10.00;99.90
21104;DHT22;10710;53.398;-1.514;2022-10-16T08:10:17;10.00;99.90
21104;DHT22;10710;53.398;-1.514;2022-10-16T08:12:43;10.00;99.90
21104;DHT22;10710;53.398;-1.514;2022-10-16T08:15:09;10.10;99.90
21104;DHT22;10710;53.398;-1.514;2022-10-16T08:17:35;10.30;99.90
21104;DHT22;10710;53.398;-1.514;2022-10-16T08:20:01;10.20;99.90
21104;DHT22;10710;53.398;-1.514;2022-10-16T08:22:28;10.30;99.90
21104;DHT22;10710;53.398;-1.514;2022-10-16T08:24:54;10.30;99.90
21104;DHT22;10710;53.398;-1.514;2022-10-16T08:27:20;10.40;99.90
21104;DHT22;10710;53.398;-1.514;2022-10-16T08:29:45;10.40;99.90
21104;DHT22;10710;53.398;-1.514;2022-10-16T08:32:12;10.40;99.90
21104;DHT22;10710;53.398;-1.514;2022-10-16T08:34:38;10.50;99.90
21104;DHT22;10710;53.398;-1.514;2022-10-16T08:37:03;10.60;99.90
21104;DHT22;10710;53.398;-1.514;2022-10-16T08:39:29;10.70;99.90
21104;DHT22;10710;53.398;-1.514;2022-10-16T08:50:00;11.00;99.90
21104;DHT22;10710;53.398;-1.514;2022-10-16T08:52:34;11.00;99.90
21104;DHT22;10710;53.398;-1.514;2022-10-16T08:55:01;11.10;99.90
21104;DHT22;10710;53.398;-1.514;2022-10-16T08:57:27;11.30;99.90
21104;DHT22;10710;53.398;-1.514;2022-10-16T08:59:54;11.60;99.90
21104;DHT22;10710;53.398;-1.514;2022-10-16T09:02:45;11.80;99.90
21104;DHT22;10710;53.398;-1.514;2022-10-16T09:05:45;11.80;99.90
21104;DHT22;10710;53.398;-1.514;2022-10-16T09:16:27;11.60;99.90
21104;DHT22;10710;53.398;-1.514;2022-10-16T09:21:42;11.50;99.90
21104;DHT22;10710;53.398;-1.514;2022-10-16T09:24:17;11.50;99.90
21104;DHT22;10710;53.398;-1.514;2022-10-16T09:26:45;11.40;99.90
21104;DHT22;10710;53.398;-1.514;2022-10-16T09:29:13;11.50;99.90
21104;DHT22;10710;53.398;-1.514;2022-10-16T09:31:40;11.50;99.90
21104;DHT22;10710;53.398;-1.514;2022-10-16T09:34:35;11.70;99.90
21104;DHT22;10710;53.398;-1.514;2022-10-16T09:37:09;11.70;99.90
21104;DHT22;10710;53.398;-1.514;2022-10-16T09:39:54;11.80;99.90
21104;DHT22;10710;53.398;-1.514;2022-10-16T09:42:35;11.90;99.90
21104;DHT22;10710;53.398;-1.514;2022-10-16T09:45:02;11.90;99.90
21104;DHT22;10710;53.398;-1.514;2022-10-16T09:47:30;12.00;99.90
21104;DHT22;10710;53.398;-1.514;2022-10-16T09:52:25;12.00;99.90
21104;DHT22;10710;53.398;-1.514;2022-10-16T09:54:56;12.10;99.90
21104;DHT22;10710;53.398;-1.514;2022-10-16T09:57:23;12.10;99.90
21104;DHT22;10710;53.398;-1.514;2022-10-16T09:59:52;12.10;99.90
21104;DHT22;10710;53.398;-1.514;2022-10-16T10:02:23;12.10;99.90
21104;DHT22;10710;53.398;-1.514;2022-10-16T10:04:54;12.20;99.90
21104;DHT22;10710;53.398;-1.514;2022-10-16T10:07:26;12.20;99.90
21104;DHT22;10710;53.398;-1.514;2022-10-16T10:09:54;12.30;99.90
21104;DHT22;10710;53.398;-1.514;2022-10-16T10:12:25;12.30;99.90
21104;DHT22;10710;53.398;-1.514;2022-10-16T10:14:55;12.40;99.90
21104;DHT22;10710;53.398;-1.514;2022-10-16T10:17:31;12.40;99.90
21104;DHT22;10710;53.398;-1.514;2022-10-16T10:22:39;12.40;99.90
21104;DHT22;10710;53.398;-1.514;2022-10-16T10:41:18;12.90;99.90
21104;DHT22;10710;53.398;-1.514;2022-10-16T10:47:01;13.00;99.90
21104;DHT22;10710;53.398;-1.514;2022-10-16T10:58:34;13.10;99.90
21104;DHT22;10710;53.398;-1.514;2022-10-16T11:06:24;13.20;99.90
21104;DHT22;10710;53.398;-1.514;2022-10-16T11:12:16;13.20;99.90
21104;DHT22;10710;53.398;-1.514;2022-10-16T11:17:48;13.20;99.90
21104;DHT22;10710;53.398;-1.514;2022-10-16T11:20:28;13.20;99.90
21104;DHT22;10710;53.398;-1.514;2022-10-16T11:23:23;13.30;99.90
21104;DHT22;10710;53.398;-1.514;2022-10-16T11:25:51;13.30;99.90
21104;DHT22;10710;53.398;-1.514;2022-10-16T11:28:40;13.30;99.90
21104;DHT22;10710;53.398;-1.514;2022-10-16T11:31:17;13.30;99.90
21104;DHT22;10710;53.398;-1.514;2022-10-16T11:37:06;13.20;99.90
21104;DHT22;10710;53.398;-1.514;2022-10-16T11:39:34;13.30;99.90
21104;DHT22;10710;53.398;-1.514;2022-10-16T11:45:39;13.40;99.90
21104;DHT22;10710;53.398;-1.514;2022-10-16T11:48:00;13.40;99.90
21104;DHT22;10710;53.398;-1.514;2022-10-16T11:53:31;13.50;99.90
21104;DHT22;10710;53.398;-1.514;2022-10-16T11:56:00;13.70;99.90
21104;DHT22;10710;53.398;-1.514;2022-10-16T11:58:37;13.70;99.90
21104;DHT22;10710;53.398;-1.514;2022-10-16T12:06:31;13.80;99.90
21104;DHT22;10710;53.398;-1.514;2022-10-16T12:09:00;14.00;99.90
21104;DHT22;10710;53.398;-1.514;2022-10-16T12:14:03;14.10;99.90
21104;DHT22;10710;53.398;-1.514;2022-10-16T12:16:29;14.10;99.90
21104;DHT22;10710;53.398;-1.514;2022-10-16T12:19:15;14.20;99.90
21104;DHT22;10710;53.398;-1.514;2022-10-16T12:21:43;14.30;99.90
21104;DHT22;10710;53.398;-1.514;2022-10-16T12:24:39;14.40;99.90
21104;DHT22;10710;53.398;-1.514;2022-10-16T12:27:28;14.70;99.90
21104;DHT22;10710;53.398;-1.514;2022-10-16T12:29:58;14.60;99.90
21104;DHT22;10710;53.398;-1.514;2022-10-16T12:32:36;14.70;99.90
21104;DHT22;10710;53.398;-1.514;2022-10-16T12:35:04;14.70;99.90
21104;DHT22;10710;53.398;-1.514;2022-10-16T12:37:34;14.70;99.90
21104;DHT22;10710;53.398;-1.514;2022-10-16T12:40:30;14.70;99.90
21104;DHT22;10710;53.398;-1.514;2022-10-16T12:42:56;14.80;99.90
21104;DHT22;10710;53.398;-1.514;2022-10-16T12:45:31;14.80;99.90
21104;DHT22;10710;53.398;-1.514;2022-10-16T12:48:00;14.90;99.90
21104;DHT22;10710;53.398;-1.514;2022-10-16T12:52:52;15.30;99.90
21104;DHT22;10710;53.398;-1.514;2022-10-16T12:55:20;15.40;99.90
21104;DHT22;10710;53.398;-1.514;2022-10-16T13:00:37;15.60;99.90
21104;DHT22;10710;53.398;-1.514;2022-10-16T13:06:17;15.70;99.90
21104;DHT22;10710;53.398;-1.514;2022-10-16T13:17:23;16.20;99.90
21104;DHT22;10710;53.398;-1.514;2022-10-16T13:20:02;16.50;99.90
21104;DHT22;10710;53.398;-1.514;2022-10-16T13:28:11;16.80;99.90
21104;DHT22;10710;53.398;-1.514;2022-10-16T13:30:41;16.80;99.90
21104;DHT22;10710;53.398;-1.514;2022-10-16T13:33:30;16.80;99.90
21104;DHT22;10710;53.398;-1.514;2022-10-16T13:35:57;17.00;99.90
21104;DHT22;10710;53.398;-1.514;2022-10-16T13:38:28;17.00;99.90
21104;DHT22;10710;53.398;-1.514;2022-10-16T13:43:37;16.90;99.90
21104;DHT22;10710;53.398;-1.514;2022-10-16T13:48:32;16.90;99.90
21104;DHT22;10710;53.398;-1.514;2022-10-16T13:51:13;16.80;99.90
21104;DHT22;10710;53.398;-1.514;2022-10-16T13:53:39;16.70;99.90
21104;DHT22;10710;53.398;-1.514;2022-10-16T13:56:18;16.50;99.90
21104;DHT22;10710;53.398;-1.514;2022-10-16T13:58:45;16.50;99.90
21104;DHT22;10710;53.398;-1.514;2022-10-16T14:01:26;16.50;99.90
21104;DHT22;10710;53.398;-1.514;2022-10-16T14:04:03;16.50;99.90
21104;DHT22;10710;53.398;-1.514;2022-10-16T14:06:32;16.70;99.90
21104;DHT22;10710;53.398;-1.514;2022-10-16T14:09:05;16.70;99.90
21104;DHT22;10710;53.398;-1.514;2022-10-16T14:11:32;16.80;99.90
21104;DHT22;10710;53.398;-1.514;2022-10-16T14:13:59;17.30;99.90
21104;DHT22;10710;53.398;-1.514;2022-10-16T14:16:30;18.10;99.90
21104;DHT22;10710;53.398;-1.514;2022-10-16T14:19:01;18.80;99.90
21104;DHT22;10710;53.398;-1.514;2022-10-16T14:21:28;19.00;99.90
21104;DHT22;10710;53.398;-1.514;2022-10-16T14:23:54;19.10;99.90
21104;DHT22;10710;53.398;-1.514;2022-10-16T14:26:26;19.10;99.90
21104;DHT22;10710;53.398;-1.514;2022-10-16T14:29:14;19.20;99.90
21104;DHT22;10710;53.398;-1.514;2022-10-16T14:31:41;19.30;99.90
21104;DHT22;10710;53.398;-1.514;2022-10-16T14:37:05;18.70;99.90
21104;DHT22;10710;53.398;-1.514;2022-10-16T14:39:33;18.60;99.90
21104;DHT22;10710;53.398;-1.514;2022-10-16T14:41:59;18.30;99.90
21104;DHT22;10710;53.398;-1.514;2022-10-16T14:44:33;18.30;99.90
21104;DHT22;10710;53.398;-1.514;2022-10-16T14:47:07;18.20;99.90
21104;DHT22;10710;53.398;-1.514;2022-10-16T14:49:34;18.20;99.90
21104;DHT22;10710;53.398;-1.514;2022-10-16T14:52:01;18.00;99.90
21104;DHT22;10710;53.398;-1.514;2022-10-16T14:54:35;17.80;99.90
21104;DHT22;10710;53.398;-1.514;2022-10-16T14:57:01;17.70;99.90
21104;DHT22;10710;53.398;-1.514;2022-10-16T14:59:32;17.60;99.90
21104;DHT22;10710;53.398;-1.514;2022-10-16T15:01:59;17.40;99.90
21104;DHT22;10710;53.398;-1.514;2022-10-16T15:04:26;17.10;99.90
21104;DHT22;10710;53.398;-1.514;2022-10-16T15:06:51;16.90;99.90
21104;DHT22;10710;53.398;-1.514;2022-10-16T15:09:17;16.70;99.90
21104;DHT22;10710;53.398;-1.514;2022-10-16T15:11:43;16.60;99.90
21104;DHT22;10710;53.398;-1.514;2022-10-16T15:14:12;16.50;99.90
21104;DHT22;10710;53.398;-1.514;2022-10-16T15:16:39;16.40;99.90
21104;DHT22;10710;53.398;-1.514;2022-10-16T15:19:05;16.30;99.90
21104;DHT22;10710;53.398;-1.514;2022-10-16T15:21:32;16.10;99.90
21104;DHT22;10710;53.398;-1.514;2022-10-16T15:23:59;16.00;99.90
21104;DHT22;10710;53.398;-1.514;2022-10-16T15:26:29;15.80;99.90
21104;DHT22;10710;53.398;-1.514;2022-10-16T15:28:56;15.70;99.90
21104;DHT22;10710;53.398;-1.514;2022-10-16T15:31:23;15.70;99.90
21104;DHT22;10710;53.398;-1.514;2022-10-16T15:33:50;15.70;99.90
21104;DHT22;10710;53.398;-1.514;2022-10-16T15:36:27;15.60;99.90
21104;DHT22;10710;53.398;-1.514;2022-10-16T15:38:53;15.60;99.90
21104;DHT22;10710;53.398;-1.514;2022-10-16T15:41:20;15.60;99.90
21104;DHT22;10710;53.398;-1.514;2022-10-16T15:43:48;15.60;99.90
21104;DHT22;10710;53.398;-1.514;2022-10-16T15:46:15;15.60;99.90
21104;DHT22;10710;53.398;-1.514;2022-10-16T15:48:42;15.50;99.90
21104;DHT22;10710;53.398;-1.514;2022-10-16T15:51:09;15.40;99.90
21104;DHT22;10710;53.398;-1.514;2022-10-16T15:53:35;15.30;99.90
21104;DHT22;10710;53.398;-1.514;2022-10-16T15:56:05;15.30;99.90
21104;DHT22;10710;53.398;-1.514;2022-10-16T15:58:31;15.30;99.90
21104;DHT22;10710;53.398;-1.514;2022-10-16T16:00:58;15.10;99.90
21104;DHT22;10710;53.398;-1.514;2022-10-16T16:03:26;15.10;99.90
21104;DHT22;10710;53.398;-1.514;2022-10-16T16:05:52;15.10;99.90
21104;DHT22;10710;53.398;-1.514;2022-10-16T16:08:19;15.00;99.90
21104;DHT22;10710;53.398;-1.514;2022-10-16T16:10:44;14.90;99.90
21104;DHT22;10710;53.398;-1.514;2022-10-16T16:13:11;14.90;99.90
21104;DHT22;10710;53.398;-1.514;2022-10-16T16:15:40;14.70;99.90
21104;DHT22;10710;53.398;-1.514;2022-10-16T16:18:06;14.70;99.90
21104;DHT22;10710;53.398;-1.514;2022-10-16T16:20:32;14.60;99.90
21104;DHT22;10710;53.398;-1.514;2022-10-16T16:22:58;14.50;99.90
21104;DHT22;10710;53.398;-1.514;2022-10-16T16:25:24;14.50;99.90
21104;DHT22;10710;53.398;-1.514;2022-10-16T16:27:49;14.40;99.90
21104;DHT22;10710;53.398;-1.514;2022-10-16T16:30:16;14.40;99.90
21104;DHT22;10710;53.398;-1.514;2022-10-16T16:32:44;14.20;99.90
21104;DHT22;10710;53.398;-1.514;2022-10-16T16:35:10;14.10;99.90
21104;DHT22;10710;53.398;-1.514;2022-10-16T16:37:36;14.00;99.90
21104;DHT22;10710;53.398;-1.514;2022-10-16T16:40:02;13.90;99.90
21104;DHT22;10710;53.398;-1.514;2022-10-16T16:42:28;13.80;99.90
21104;DHT22;10710;53.398;-1.514;2022-10-16T16:44:53;13.80;99.90
21104;DHT22;10710;53.398;-1.514;2022-10-16T16:47:20;13.80;99.90
21104;DHT22;10710;53.398;-1.514;2022-10-16T16:49:46;13.70;99.90
21104;DHT22;10710;53.398;-1.514;2022-10-16T16:52:12;13.70;99.90
21104;DHT22;10710;53.398;-1.514;2022-10-16T16:54:39;13.60;99.90
21104;DHT22;10710;53.398;-1.514;2022-10-16T16:57:05;13.50;99.90
21104;DHT22;10710;53.398;-1.514;2022-10-16T16:59:31;13.40;99.90
21104;DHT22;10710;53.398;-1.514;2022-10-16T17:01:59;13.40;99.90
21104;DHT22;10710;53.398;-1.514;2022-10-16T17:04:26;13.20;99.90
21104;DHT22;10710;53.398;-1.514;2022-10-16T17:06:55;13.10;99.90
21104;DHT22;10710;53.398;-1.514;2022-10-16T17:09:22;13.10;99.90
21104;DHT22;10710;53.398;-1.514;2022-10-16T17:11:48;13.10;99.90
21104;DHT22;10710;53.398;-1.514;2022-10-16T17:14:14;13.10;99.90
21104;DHT22;10710;53.398;-1.514;2022-10-16T17:16:40;13.10;99.90
21104;DHT22;10710;53.398;-1.514;2022-10-16T17:19:15;13.00;99.90
21104;DHT22;10710;53.398;-1.514;2022-10-16T17:21:41;12.90;99.90
21104;DHT22;10710;53.398;-1.514;2022-10-16T17:24:08;13.00;99.90
21104;DHT22;10710;53.398;-1.514;2022-10-16T17:26:34;12.90;99.90
21104;DHT22;10710;53.398;-1.514;2022-10-16T17:29:04;12.80;99.90
21104;DHT22;10710;53.398;-1.514;2022-10-16T17:31:33;12.80;99.90
21104;DHT22;10710;53.398;-1.514;2022-10-16T17:34:00;12.80;99.90
21104;DHT22;10710;53.398;-1.514;2022-10-16T17:36:26;12.70;99.90
21104;DHT22;10710;53.398;-1.514;2022-10-16T17:39:15;12.70;99.90
21104;DHT22;10710;53.398;-1.514;2022-10-16T17:41:42;12.70;99.90